createdAt,value
2022-08-17T00:02:26.152Z,100057.09
2022-08-17T00:05:33.488Z,100051.72
2022-08-17T00:08:38.419Z,100057.47
2022-08-17T00:11:43.085Z,100056.66
2022-08-17T00:15:10.339Z,100065.09
2022-08-17T00:18:53.778Z,100062.34
2022-08-17T00:22:28.658Z,100056.84
2022-08-17T00:25:05.287Z,100068.47
2022-08-17T00:28:08.009Z,100056.19
2022-08-17T00:31:11.533Z,100056.31
2022-08-17T00:34:14.005Z,100075.28
2022-08-17T00:37:17.868Z,100067.25
2022-08-17T00:40:20.689Z,100066.97
2022-08-17T00:43:32.042Z,100060.53
2022-08-17T00:46:40.373Z,100068.16
2022-08-17T00:49:42.861Z,100058.19
2022-08-17T00:52:55.041Z,100059.59
2022-08-17T00:55:58.599Z,100056.50
2022-08-17T00:59:02.958Z,100051.81
2022-08-17T01:02:07.214Z,100051.19
2022-08-17T01:05:13.410Z,100052.00
2022-08-17T01:08:20.351Z,100057.75
2022-08-17T01:11:22.890Z,100056.06
2022-08-17T01:14:26.930Z,100063.91
2022-08-17T01:17:29.741Z,100057.84
2022-08-17T01:20:43.107Z,100064.06
2022-08-17T01:23:52.873Z,100064.22
2022-08-17T01:26:56.607Z,100077.03
2022-08-17T01:30:04.210Z,100075.91
2022-08-17T01:33:26.643Z,100071.63
2022-08-17T01:36:29.331Z,100067.72
2022-08-17T01:39:37.060Z,100068.22
2022-08-17T01:42:43.477Z,100069.22
2022-08-17T01:45:49.527Z,100070.94
2022-08-17T01:49:07.995Z,100074.50
2022-08-17T01:52:12.944Z,100066.88
2022-08-17T01:55:24.575Z,100065.66
2022-08-17T01:58:29.853Z,100082.13
2022-08-17T02:01:34.614Z,100075.28
2022-08-17T02:04:37.264Z,100075.66
2022-08-17T02:07:56.015Z,100074.22
2022-08-17T02:11:06.069Z,100077.78
2022-08-17T02:14:14.325Z,100073.91
2022-08-17T02:17:16.899Z,100066.88
2022-08-17T02:20:41.376Z,100073.56
2022-08-17T02:23:47.423Z,100068.03
2022-08-17T02:26:51.223Z,100064.91
2022-08-17T02:29:53.717Z,100073.28
2022-08-17T02:32:57.030Z,100077.13
2022-08-17T02:35:59.560Z,100066.47
2022-08-17T02:39:03.118Z,100093.25
2022-08-17T02:42:07.220Z,100090.72
2022-08-17T02:45:13.545Z,100088.78
2022-08-17T02:48:16.014Z,100089.47
2022-08-17T02:51:33.413Z,100094.72
2022-08-17T02:54:41.473Z,100085.34
2022-08-17T02:57:46.525Z,100069.56
2022-08-17T03:00:49.083Z,100085.94
2022-08-17T03:03:51.554Z,100086.91
2022-08-17T03:06:55.113Z,100074.03
2022-08-17T03:09:57.546Z,100088.91
2022-08-17T03:13:01.653Z,100075.25
2022-08-17T03:16:04.850Z,100073.16
2022-08-17T03:19:07.296Z,100069.81
2022-08-17T03:22:36.713Z,100067.28
2022-08-17T03:25:34.949Z,100064.81
2022-08-17T03:28:39.660Z,100055.84
2022-08-17T03:31:42.113Z,100064.13
2022-08-17T03:34:44.599Z,100083.34
2022-08-17T03:37:47.636Z,100088.53
2022-08-17T03:41:03.168Z,100079.22
2022-08-17T03:44:07.254Z,100078.75
2022-08-17T03:47:27.425Z,100086.28
2022-08-17T03:51:02.327Z,100090.16
2022-08-17T03:54:22.810Z,100080.81
2022-08-17T03:57:25.755Z,100086.75
2022-08-17T04:00:29.575Z,100066.09
2022-08-17T04:03:32.049Z,100068.56
2022-08-17T04:06:34.579Z,100072.63
2022-08-17T04:09:37.446Z,100074.91
2022-08-17T04:12:46.358Z,100074.31
2022-08-17T04:15:50.694Z,100070.94
2022-08-17T04:18:53.688Z,100076.72
2022-08-17T04:21:57.718Z,100072.69
2022-08-17T04:25:00.299Z,100086.41
2022-08-17T04:28:03.942Z,100079.97
2022-08-17T04:31:11.425Z,100086.53
2022-08-17T04:34:13.874Z,100089.16
2022-08-17T04:37:16.421Z,100089.91
2022-08-17T04:40:37.776Z,100097.38
2022-08-17T04:43:42.123Z,100103.50
2022-08-17T04:46:46.856Z,100120.50
2022-08-17T04:49:49.279Z,100111.13
2022-08-17T04:52:51.962Z,100113.63
2022-08-17T04:55:55.412Z,100121.59
2022-08-17T04:59:00.328Z,100131.56
2022-08-17T05:02:04.130Z,100136.88
2022-08-17T05:05:07.332Z,100139.56
2022-08-17T05:08:10.428Z,100149.53
2022-08-17T05:11:12.876Z,100142.34
2022-08-17T05:14:15.867Z,100150.00
2022-08-17T05:17:19.635Z,100155.78
2022-08-17T05:20:22.520Z,100163.69
2022-08-17T05:23:27.438Z,100165.81
2022-08-17T05:26:41.722Z,100159.66
2022-08-17T05:29:44.989Z,100171.00
2022-08-17T05:32:54.494Z,100170.34
2022-08-17T05:35:59.462Z,100170.94
2022-08-17T05:39:02.212Z,100177.84
2022-08-17T05:42:04.987Z,100181.22
2022-08-17T05:45:08.630Z,100177.66
2022-08-17T05:48:13.124Z,100175.41
2022-08-17T05:51:32.916Z,100181.06
2022-08-17T05:54:44.603Z,100178.84
2022-08-17T05:58:00.860Z,100174.31
2022-08-17T06:01:10.942Z,100173.69
2022-08-17T06:04:35.768Z,100178.06
2022-08-17T06:07:49.290Z,100178.84
2022-08-17T06:10:59.745Z,100187.66
2022-08-17T06:14:14.550Z,100189.38
2022-08-17T06:17:21.950Z,100189.97
2022-08-17T06:20:27.996Z,100191.53
2022-08-17T06:23:35.987Z,100201.88
2022-08-17T06:26:43.412Z,100202.06
2022-08-17T06:29:53.912Z,100199.06
2022-08-17T06:33:05.944Z,100195.38
2022-08-17T06:36:24.974Z,100205.75
2022-08-17T06:39:38.804Z,100207.91
2022-08-17T06:43:06.180Z,100211.50
2022-08-17T06:46:14.332Z,100214.22
2022-08-17T06:49:25.339Z,100219.13
2022-08-17T06:52:46.923Z,100218.06
2022-08-17T06:55:56.793Z,100228.94
2022-08-17T06:59:00.761Z,100220.56
2022-08-17T07:02:08.105Z,100224.31
2022-08-17T07:05:10.753Z,100227.78
2022-08-17T07:08:20.595Z,100231.53
2022-08-17T07:11:28.528Z,100240.25
2022-08-17T07:14:36.604Z,100240.81
2022-08-17T07:17:56.826Z,100230.69
2022-08-17T07:21:08.371Z,100231.00
2022-08-17T07:24:30.464Z,100245.00
2022-08-17T07:27:37.325Z,100243.22
2022-08-17T07:30:45.907Z,100233.44
2022-08-17T07:34:01.163Z,100240.75
2022-08-17T07:37:05.388Z,100243.53
2022-08-17T07:40:23.561Z,100245.81
2022-08-17T07:43:29.532Z,100255.41
2022-08-17T07:46:54.107Z,100253.53
2022-08-17T07:49:56.553Z,100256.13
2022-08-17T07:53:10.626Z,100250.84
2022-08-17T07:56:34.433Z,100255.66
2022-08-17T07:59:40.738Z,100251.81
2022-08-17T08:02:59.856Z,100254.25
2022-08-17T08:06:04.107Z,100275.34
2022-08-17T08:09:06.541Z,100265.28
2022-08-17T08:12:33.787Z,100266.09
2022-08-17T08:15:40.307Z,100260.44
2022-08-17T08:18:55.915Z,100265.09
2022-08-17T08:22:06.038Z,100255.56
2022-08-17T08:25:20.994Z,100257.94
2022-08-17T08:28:30.866Z,100263.94
2022-08-17T08:31:48.487Z,100269.69
2022-08-17T08:35:03.867Z,100265.53
2022-08-17T08:38:16.233Z,100266.50
2022-08-17T08:41:31.444Z,100268.03
2022-08-17T08:45:00.585Z,100276.59
2022-08-17T08:48:53.899Z,100278.63
2022-08-17T08:51:52.767Z,100283.50
2022-08-17T08:55:03.935Z,100266.53
2022-08-17T08:58:31.455Z,100272.22
2022-08-17T09:01:40.286Z,100276.09
2022-08-17T09:05:13.771Z,100268.53
2022-08-17T09:08:28.787Z,100260.84
2022-08-17T09:12:02.011Z,100259.75
2022-08-17T09:15:12.294Z,100262.63
2022-08-17T09:19:00.613Z,100261.50
2022-08-17T09:21:52.473Z,100259.38
2022-08-17T09:25:00.875Z,100269.53
2022-08-17T09:28:08.703Z,100261.75
2022-08-17T09:31:17.647Z,100269.22
2022-08-17T09:34:33.161Z,100265.75
2022-08-17T09:37:44.601Z,100275.50
2022-08-17T09:40:53.248Z,100256.88
2022-08-17T09:44:03.315Z,100257.44
2022-08-17T09:47:11.867Z,100259.00
2022-08-17T09:50:20.150Z,100258.34
2022-08-17T09:53:44.754Z,100270.34
2022-08-17T09:57:25.922Z,100258.44
2022-08-17T10:00:25.102Z,100250.16
2022-08-17T10:03:44.118Z,100253.06
2022-08-17T10:06:55.389Z,100257.53
2022-08-17T10:10:02.562Z,100259.75
2022-08-17T10:13:11.000Z,100256.69
2022-08-17T10:16:22.650Z,100259.81
2022-08-17T10:19:34.232Z,100256.75
2022-08-17T10:23:02.338Z,100242.66
2022-08-17T10:26:14.838Z,100225.91
2022-08-17T10:29:23.519Z,100224.13
2022-08-17T10:32:34.387Z,100231.56
2022-08-17T10:35:44.129Z,100234.09
2022-08-17T10:38:50.832Z,100237.09
2022-08-17T10:41:58.749Z,100245.63
2022-08-17T10:45:07.090Z,100249.88
2022-08-17T10:48:32.834Z,100245.44
2022-08-17T10:51:37.974Z,100252.47
2022-08-17T10:54:49.089Z,100254.19
2022-08-17T10:57:54.798Z,100256.13
2022-08-17T11:00:59.537Z,100257.81
2022-08-17T11:04:12.120Z,100240.59
2022-08-17T11:07:31.924Z,100227.97
2022-08-17T11:10:51.985Z,100222.31
2022-08-17T11:14:11.115Z,100226.97
2022-08-17T11:17:36.190Z,100225.28
2022-08-17T11:21:05.665Z,100220.59
2022-08-17T11:24:30.538Z,100217.53
2022-08-17T11:27:36.568Z,100216.06
2022-08-17T11:30:46.981Z,100207.25
2022-08-17T11:33:59.138Z,100202.72
2022-08-17T11:37:31.791Z,100211.22
2022-08-17T11:40:43.175Z,100201.09
2022-08-17T11:44:01.907Z,100213.31
2022-08-17T11:47:31.077Z,100224.38
2022-08-17T11:51:02.931Z,100222.63
2022-08-17T11:58:01.658Z,100212.66
2022-08-17T12:01:06.911Z,100205.22
2022-08-17T12:04:24.964Z,100205.91
2022-08-17T12:07:27.611Z,100211.41
2022-08-17T12:10:32.394Z,100214.00
2022-08-17T12:13:43.233Z,100201.66
2022-08-17T12:16:59.039Z,100200.75
2022-08-17T12:20:16.142Z,100188.50
2022-08-17T12:23:27.141Z,100204.53
2022-08-17T12:26:33.202Z,100209.38
2022-08-17T12:29:38.827Z,100193.72
2022-08-17T12:32:47.625Z,100189.00
2022-08-17T12:35:59.319Z,100186.72
2022-08-17T12:39:13.860Z,100180.72
2022-08-17T12:42:24.777Z,100191.00
2022-08-17T12:45:30.286Z,100188.13
2022-08-17T12:48:36.205Z,100181.56
2022-08-17T12:51:44.091Z,100186.50
2022-08-17T12:54:51.077Z,100173.91
2022-08-17T12:57:55.390Z,100184.03
2022-08-17T13:01:01.043Z,100183.59
2022-08-17T13:04:06.557Z,100178.19
2022-08-17T13:07:09.026Z,100169.91
2022-08-17T13:10:18.250Z,100174.13
2022-08-17T13:13:24.264Z,100193.19
2022-08-17T13:16:28.779Z,100188.34
2022-08-17T13:19:40.925Z,100192.47
2022-08-17T13:22:45.288Z,100193.88
2022-08-17T13:25:54.484Z,100195.09
2022-08-17T13:28:57.431Z,100192.25
2022-08-17T13:32:19.815Z,100186.72
2022-08-17T13:35:39.267Z,100175.97
2022-08-17T13:38:47.876Z,100175.28
2022-08-17T13:41:52.235Z,100172.50
2022-08-17T13:44:54.691Z,100173.16
2022-08-17T13:48:10.954Z,100168.66
2022-08-17T13:51:26.586Z,100160.38
2022-08-17T13:54:31.946Z,100153.56
2022-08-17T13:57:35.843Z,100147.84
2022-08-17T14:00:39.436Z,100145.19
2022-08-17T14:03:41.888Z,100147.06
2022-08-17T14:06:53.997Z,100144.53
2022-08-17T14:10:01.314Z,100148.47
2022-08-17T14:13:04.597Z,100150.97
2022-08-17T14:16:07.497Z,100147.56
2022-08-17T14:19:11.510Z,100157.09
2022-08-17T14:22:23.680Z,100163.56
2022-08-17T14:25:28.759Z,100163.47
2022-08-17T14:28:31.983Z,100164.03
2022-08-17T14:31:37.623Z,100152.00
2022-08-17T14:34:40.265Z,100153.72
2022-08-17T14:37:45.645Z,100150.03
2022-08-17T14:40:48.879Z,100144.28
2022-08-17T14:43:52.889Z,100134.34
2022-08-17T14:46:55.345Z,100128.50
2022-08-17T14:49:59.147Z,100123.16
2022-08-17T14:53:04.385Z,100133.28
2022-08-17T14:56:07.322Z,100130.41
2022-08-17T14:59:09.870Z,100129.38
2022-08-17T15:02:13.177Z,100130.84
2022-08-17T15:05:17.753Z,100122.50
2022-08-17T15:08:21.566Z,100120.94
2022-08-17T15:11:24.108Z,100126.94
2022-08-17T15:14:26.664Z,100129.34
2022-08-17T15:17:45.000Z,100122.66
2022-08-17T15:20:52.735Z,100126.81
2022-08-17T15:23:56.613Z,100121.78
2022-08-17T15:26:59.071Z,100128.59
2022-08-17T15:30:01.717Z,100129.06
2022-08-17T15:33:05.090Z,100130.59
2022-08-17T15:36:09.054Z,100128.66
2022-08-17T15:39:12.850Z,100119.38
2022-08-17T15:42:16.149Z,100120.53
2022-08-17T15:45:24.607Z,100121.00
2022-08-17T15:48:40.730Z,100125.00
2022-08-17T15:51:43.281Z,100124.81
2022-08-17T15:54:52.063Z,100124.09
2022-08-17T15:57:55.233Z,100128.44
2022-08-17T16:01:15.143Z,100122.00
2022-08-17T16:04:29.722Z,100123.19
2022-08-17T16:07:33.347Z,100122.97
2022-08-17T16:10:37.336Z,100120.88
2022-08-17T16:13:40.652Z,100109.09
2022-08-17T16:16:43.150Z,100107.56
2022-08-17T16:19:46.037Z,100108.38
2022-08-17T16:22:50.878Z,100101.13
2022-08-17T16:25:54.863Z,100094.53
2022-08-17T16:28:59.145Z,100093.69
2022-08-17T16:32:10.068Z,100091.63
2022-08-17T16:35:15.359Z,100091.84
2022-08-17T16:38:18.765Z,100083.75
2022-08-17T16:41:45.290Z,100080.69
2022-08-17T16:44:48.171Z,100091.00
2022-08-17T16:47:52.030Z,100083.31
2022-08-17T16:51:03.534Z,100082.94
2022-08-17T16:54:08.275Z,100086.31
2022-08-17T16:57:12.458Z,100080.66
2022-08-17T17:00:16.986Z,100080.88
2022-08-17T17:03:25.749Z,100086.53
2022-08-17T17:06:40.688Z,100086.94
2022-08-17T17:09:46.420Z,100090.66
2022-08-17T17:13:03.566Z,100089.81
2022-08-17T17:16:17.967Z,100100.69
2022-08-17T17:19:34.356Z,100100.88
2022-08-17T17:22:47.264Z,100087.88
2022-08-17T17:25:55.787Z,100086.00
2022-08-17T17:29:12.317Z,100089.72
2022-08-17T17:32:21.395Z,100081.06
2022-08-17T17:35:31.574Z,100085.44
2022-08-17T17:38:41.435Z,100087.03
2022-08-17T17:41:48.166Z,100080.88
2022-08-17T17:45:00.365Z,100082.53
2022-08-17T17:48:03.168Z,100095.16
2022-08-17T17:51:16.038Z,100097.22
2022-08-17T17:54:50.500Z,100106.38
2022-08-17T17:58:04.159Z,100097.72
2022-08-17T18:01:41.793Z,100099.00
2022-08-17T18:05:00.107Z,100103.28
2022-08-17T18:08:16.551Z,100111.06
2022-08-17T18:11:32.370Z,100115.72
2022-08-17T18:14:58.595Z,100117.50
2022-08-17T18:18:26.240Z,100114.13
2022-08-17T18:21:35.964Z,100111.69
2022-08-17T18:24:40.546Z,100113.47
2022-08-17T18:27:52.685Z,100111.75
2022-08-17T18:31:07.865Z,100117.84
2022-08-17T18:34:45.850Z,100116.44
2022-08-17T18:37:50.218Z,100122.34
2022-08-17T18:41:06.273Z,100124.78
2022-08-17T18:44:24.643Z,100130.13
2022-08-17T18:47:29.769Z,100129.44
2022-08-17T18:50:41.223Z,100127.66
2022-08-17T18:53:43.764Z,100130.56
2022-08-17T18:56:51.574Z,100132.53
2022-08-17T18:59:54.111Z,100134.75
2022-08-17T19:03:00.827Z,100145.16
2022-08-17T19:06:22.838Z,100145.97
2022-08-17T19:09:33.589Z,100138.78
2022-08-17T19:12:40.890Z,100133.19
2022-08-17T19:16:13.124Z,100129.47
2022-08-17T19:19:18.662Z,100140.22
2022-08-17T19:22:29.303Z,100143.66
2022-08-17T19:25:37.062Z,100138.59
2022-08-17T19:28:48.018Z,100136.91
2022-08-17T19:31:55.204Z,100134.31
2022-08-17T19:34:58.439Z,100140.56
2022-08-17T19:38:12.863Z,100134.22
2022-08-17T19:41:23.372Z,100136.50
2022-08-17T19:44:42.724Z,100127.72
2022-08-17T19:48:01.671Z,100135.09
2022-08-17T19:51:11.498Z,100135.13
2022-08-17T19:54:22.089Z,100132.16
2022-08-17T19:57:36.701Z,100131.69
2022-08-17T20:00:46.926Z,100129.66
2022-08-17T20:03:57.354Z,100128.19
2022-08-17T20:07:04.398Z,100124.00
2022-08-17T20:10:13.888Z,100126.91
2022-08-17T20:13:33.525Z,100123.38
2022-08-17T20:16:36.754Z,100127.59
2022-08-17T20:19:48.557Z,100127.09
2022-08-17T20:22:57.937Z,100120.38
2022-08-17T20:26:17.179Z,100125.97
2022-08-17T20:29:37.472Z,100119.41
2022-08-17T20:32:52.919Z,100125.06
2022-08-17T20:36:16.986Z,100118.34
2022-08-17T20:39:34.654Z,100130.69
2022-08-17T20:42:40.303Z,100123.69
2022-08-17T20:46:20.192Z,100122.91
2022-08-17T20:49:28.653Z,100117.53
2022-08-17T20:52:52.372Z,100110.47
2022-08-17T20:55:55.763Z,100118.56
2022-08-17T20:59:00.760Z,100125.63
2022-08-17T21:02:18.483Z,100116.53
2022-08-17T21:05:32.330Z,100116.53
2022-08-17T21:08:45.684Z,100114.72
2022-08-17T21:12:03.733Z,100119.09
2022-08-17T21:15:24.140Z,100114.38
2022-08-17T21:18:35.925Z,100121.50
2022-08-17T21:21:46.675Z,100122.50
2022-08-17T21:24:58.639Z,100122.34
2022-08-17T21:28:15.644Z,100128.59
2022-08-17T21:31:35.844Z,100122.69
2022-08-17T21:34:42.433Z,100122.00
2022-08-17T21:37:47.943Z,100125.06
2022-08-17T21:40:53.065Z,100120.38
2022-08-17T21:44:03.047Z,100124.75
2022-08-17T21:47:21.382Z,100137.56
2022-08-17T21:50:26.220Z,100131.34
2022-08-17T21:53:38.854Z,100132.50
2022-08-17T21:56:46.812Z,100135.38
2022-08-17T21:59:54.519Z,100134.53
2022-08-17T22:03:01.070Z,100133.19
2022-08-17T22:06:21.088Z,100129.47
2022-08-17T22:09:26.536Z,100138.88
2022-08-17T22:12:30.436Z,100129.47
2022-08-17T22:15:36.906Z,100134.69
2022-08-17T22:18:45.040Z,100131.97
2022-08-17T22:21:47.534Z,100133.28
2022-08-17T22:24:56.836Z,100142.56
2022-08-17T22:28:02.195Z,100131.66
2022-08-17T22:31:05.651Z,100140.22
2022-08-17T22:34:13.779Z,100140.06
2022-08-17T22:37:21.342Z,100135.69
2022-08-17T22:40:32.661Z,100132.47
2022-08-17T22:43:39.061Z,100132.84
2022-08-17T22:46:56.235Z,100130.94
2022-08-17T22:50:02.731Z,100131.97
2022-08-17T22:53:34.024Z,100128.44
2022-08-17T22:56:55.342Z,100140.22
2022-08-17T22:59:57.991Z,100136.03
2022-08-17T23:03:11.249Z,100140.41
2022-08-17T23:06:15.103Z,100139.56
2022-08-17T23:09:17.603Z,100131.31
2022-08-17T23:12:26.227Z,100131.31
2022-08-17T23:15:33.903Z,100135.53
2022-08-17T23:18:36.401Z,100136.19
2022-08-17T23:21:40.664Z,100127.78
2022-08-17T23:24:46.361Z,100125.63
2022-08-17T23:27:49.637Z,100114.00
2022-08-17T23:30:52.231Z,100117.03
2022-08-17T23:33:54.880Z,100116.16
2022-08-17T23:37:02.099Z,100109.09
2022-08-17T23:40:05.604Z,100113.81
2022-08-17T23:43:23.336Z,100111.78
2022-08-17T23:46:28.346Z,100105.75
2022-08-17T23:49:31.227Z,100111.09
2022-08-17T23:52:36.818Z,100107.56
2022-08-17T23:55:39.329Z,100105.72
2022-08-17T23:58:43.550Z,100104.19
